createdAt,value
2022-09-27T00:01:25.375Z,0.80
2022-09-27T00:03:55.489Z,1.05
2022-09-27T00:06:28.205Z,0.73
2022-09-27T00:08:55.710Z,0.98
2022-09-27T00:11:37.006Z,0.90
2022-09-27T00:14:04.335Z,1.45
2022-09-27T00:16:34.432Z,0.90
2022-09-27T00:19:02.888Z,0.70
2022-09-27T00:21:30.734Z,0.73
2022-09-27T00:23:58.960Z,0.80
2022-09-27T00:26:26.430Z,0.75
2022-09-27T00:28:53.839Z,0.80
2022-09-27T00:31:31.086Z,1.08
2022-09-27T00:34:01.141Z,0.90
2022-09-27T00:36:29.224Z,1.00
2022-09-27T00:38:56.964Z,0.85
2022-09-27T00:41:32.260Z,1.00
2022-09-27T00:44:01.829Z,0.80
2022-09-27T00:46:34.419Z,3.63
2022-09-27T00:49:22.036Z,0.77
2022-09-27T00:52:12.736Z,0.63
2022-09-27T00:54:42.558Z,1.00
2022-09-27T00:57:10.373Z,0.73
2022-09-27T00:59:43.501Z,1.05
2022-09-27T01:02:10.544Z,1.02
2022-09-27T01:04:39.536Z,0.65
2022-09-27T01:07:06.445Z,0.98
2022-09-27T01:09:34.823Z,0.95
2022-09-27T01:12:20.935Z,1.63
2022-09-27T01:15:02.980Z,1.20
2022-09-27T01:17:59.471Z,1.30
2022-09-27T01:20:47.181Z,1.10
2022-09-27T01:23:39.384Z,1.27
2022-09-27T01:26:24.968Z,1.20
2022-09-27T01:29:12.950Z,1.23
2022-09-27T01:31:42.835Z,0.80
2022-09-27T01:34:42.476Z,1.52
2022-09-27T01:37:46.746Z,1.83
2022-09-27T01:40:37.956Z,1.33
2022-09-27T01:43:09.100Z,1.92
2022-09-27T01:46:06.140Z,1.00
2022-09-27T01:48:38.950Z,1.40
2022-09-27T01:51:12.375Z,1.05
2022-09-27T01:53:43.964Z,2.25
2022-09-27T01:56:16.413Z,1.08
2022-09-27T01:58:51.731Z,1.10
2022-09-27T02:01:20.463Z,1.40
2022-09-27T02:03:50.712Z,1.52
2022-09-27T02:06:31.336Z,1.42
2022-09-27T02:09:08.981Z,1.23
2022-09-27T02:11:38.495Z,1.00
2022-09-27T02:14:05.349Z,1.23
2022-09-27T02:16:54.369Z,1.05
2022-09-27T02:19:27.456Z,1.38
2022-09-27T02:22:06.068Z,0.82
2022-09-27T02:24:41.413Z,1.35
2022-09-27T02:27:40.394Z,1.30
2022-09-27T02:30:12.890Z,0.90
2022-09-27T02:32:40.405Z,1.00
2022-09-27T02:35:19.742Z,1.40
2022-09-27T02:37:47.002Z,0.93
2022-09-27T02:40:13.887Z,0.85
2022-09-27T02:42:42.886Z,0.85
2022-09-27T02:45:10.848Z,0.75
2022-09-27T02:47:56.922Z,0.70
2022-09-27T02:50:56.725Z,0.52
2022-09-27T02:53:31.577Z,1.08
2022-09-27T02:56:11.045Z,1.15
2022-09-27T02:58:58.926Z,0.88
2022-09-27T03:01:37.876Z,1.40
2022-09-27T03:04:19.076Z,1.58
2022-09-27T03:06:47.892Z,1.05
2022-09-27T03:09:28.154Z,1.05
2022-09-27T03:11:55.047Z,1.10
2022-09-27T03:14:21.681Z,1.17
2022-09-27T03:16:48.341Z,1.17
2022-09-27T03:19:15.457Z,0.82
2022-09-27T03:21:42.336Z,0.55
2022-09-27T03:24:09.093Z,0.80
2022-09-27T03:26:35.766Z,1.13
2022-09-27T03:29:02.528Z,0.50
2022-09-27T03:31:30.621Z,0.85
2022-09-27T03:33:57.564Z,1.25
2022-09-27T03:36:24.649Z,0.85
2022-09-27T03:38:51.212Z,0.70
2022-09-27T03:41:17.766Z,0.80
2022-09-27T03:43:44.360Z,0.90
2022-09-27T03:46:11.230Z,0.73
2022-09-27T03:48:37.966Z,1.00
2022-09-27T03:51:05.217Z,0.75
2022-09-27T03:53:31.819Z,0.70
2022-09-27T03:55:58.669Z,0.80
2022-09-27T03:58:25.307Z,1.05
2022-09-27T04:00:52.017Z,0.63
2022-09-27T04:03:19.554Z,0.60
2022-09-27T04:05:46.476Z,0.85
2022-09-27T04:08:13.638Z,0.60
2022-09-27T04:10:41.623Z,0.40
2022-09-27T04:13:08.408Z,0.38
2022-09-27T04:15:35.047Z,0.60
2022-09-27T04:18:01.716Z,1.27
2022-09-27T04:20:28.404Z,0.60
2022-09-27T04:22:55.198Z,0.77
2022-09-27T04:25:21.791Z,0.60
2022-09-27T04:27:51.941Z,0.57
2022-09-27T04:30:19.275Z,0.68
2022-09-27T04:32:46.058Z,0.50
2022-09-27T04:35:32.811Z,0.47
2022-09-27T04:38:00.375Z,0.70
2022-09-27T04:40:27.089Z,0.80
2022-09-27T04:42:53.816Z,0.55
2022-09-27T04:45:21.326Z,0.77
2022-09-27T04:47:49.831Z,0.70
2022-09-27T04:50:18.188Z,0.60
2022-09-27T04:52:44.930Z,0.57
2022-09-27T04:55:11.773Z,0.70
2022-09-27T04:57:38.368Z,0.70
2022-09-27T05:00:05.500Z,0.60
2022-09-27T05:02:32.186Z,0.80
2022-09-27T05:04:59.815Z,0.70
2022-09-27T05:07:29.819Z,0.77
2022-09-27T05:09:56.908Z,0.70
2022-09-27T05:12:26.737Z,0.70
2022-09-27T05:14:54.166Z,0.80
2022-09-27T05:17:22.295Z,0.88
2022-09-27T05:19:49.416Z,0.70
2022-09-27T05:22:16.710Z,1.15
2022-09-27T05:24:43.317Z,0.60
2022-09-27T05:27:16.769Z,0.68
2022-09-27T05:29:43.327Z,0.70
2022-09-27T05:32:10.140Z,0.85
2022-09-27T05:34:37.034Z,0.50
2022-09-27T05:37:03.964Z,0.88
2022-09-27T05:39:30.759Z,0.82
2022-09-27T05:41:57.536Z,0.98
2022-09-27T05:44:26.237Z,0.68
2022-09-27T05:46:52.971Z,0.55
2022-09-27T05:49:20.306Z,0.80
2022-09-27T05:51:47.860Z,0.95
2022-09-27T05:54:14.609Z,0.65
2022-09-27T05:56:41.391Z,1.00
2022-09-27T05:59:07.989Z,0.80
2022-09-27T06:01:35.639Z,0.70
2022-09-27T06:04:04.036Z,0.80
2022-09-27T06:06:30.661Z,0.70
2022-09-27T06:08:57.678Z,0.77
2022-09-27T06:11:27.690Z,1.23
2022-09-27T06:13:54.549Z,0.88
2022-09-27T06:16:21.361Z,0.95
2022-09-27T06:18:47.970Z,1.00
2022-09-27T06:21:14.535Z,0.80
2022-09-27T06:23:41.305Z,0.90
2022-09-27T06:26:08.021Z,1.00
2022-09-27T06:28:35.562Z,0.93
2022-09-27T06:31:02.584Z,0.88
2022-09-27T06:33:29.259Z,1.02
2022-09-27T06:35:55.915Z,1.00
2022-09-27T06:38:24.776Z,0.70
2022-09-27T06:40:51.487Z,0.90
2022-09-27T06:43:20.579Z,1.00
2022-09-27T06:45:47.982Z,0.82
2022-09-27T06:48:17.126Z,0.80
2022-09-27T06:50:45.929Z,1.33
2022-09-27T06:53:14.540Z,0.77
2022-09-27T06:55:41.252Z,0.65
2022-09-27T06:58:29.056Z,1.00
2022-09-27T07:00:55.847Z,0.55
2022-09-27T07:03:24.698Z,0.80
2022-09-27T07:05:57.588Z,1.25
2022-09-27T07:08:28.573Z,0.63
2022-09-27T07:10:56.585Z,0.88
2022-09-27T07:13:23.242Z,0.90
2022-09-27T07:15:49.833Z,1.13
2022-09-27T07:18:16.437Z,0.70
2022-09-27T07:20:43.053Z,0.90
2022-09-27T07:23:11.247Z,1.08
2022-09-27T07:25:37.872Z,1.00
2022-09-27T07:28:08.170Z,1.27
2022-09-27T07:30:37.171Z,1.20
2022-09-27T07:33:06.249Z,0.90
2022-09-27T07:35:33.146Z,1.45
2022-09-27T07:37:59.823Z,1.00
2022-09-27T07:40:27.042Z,1.10
2022-09-27T07:42:57.821Z,1.00
2022-09-27T07:45:25.703Z,1.10
2022-09-27T07:47:52.884Z,1.02
2022-09-27T07:50:22.065Z,1.10
2022-09-27T07:52:51.301Z,1.10
2022-09-27T07:55:19.322Z,1.00
2022-09-27T07:57:46.944Z,0.80
2022-09-27T08:00:19.765Z,0.80
2022-09-27T08:02:46.691Z,0.80
2022-09-27T08:05:14.036Z,0.60
2022-09-27T08:07:41.351Z,1.20
2022-09-27T08:10:09.042Z,0.63
2022-09-27T08:12:35.904Z,0.70
2022-09-27T08:15:04.327Z,0.70
2022-09-27T08:17:32.484Z,0.98
2022-09-27T08:19:59.342Z,0.70
2022-09-27T08:22:26.060Z,0.93
2022-09-27T08:24:52.761Z,1.10
2022-09-27T08:27:19.425Z,1.00
2022-09-27T08:29:46.204Z,0.85
2022-09-27T08:32:13.184Z,1.00
2022-09-27T08:34:40.216Z,0.98
2022-09-27T08:37:10.450Z,0.95
2022-09-27T08:39:37.074Z,1.17
2022-09-27T08:42:39.515Z,0.80
2022-09-27T08:45:23.088Z,1.00
2022-09-27T08:47:56.640Z,1.42
2022-09-27T08:50:39.997Z,1.13
2022-09-27T08:53:18.442Z,0.80
2022-09-27T08:55:49.384Z,1.00
2022-09-27T08:58:30.985Z,1.20
2022-09-27T09:01:03.219Z,1.10
2022-09-27T09:03:33.867Z,1.40
2022-09-27T09:06:06.492Z,0.77
2022-09-27T09:09:18.430Z,0.90
2022-09-27T09:12:42.855Z,1.00
2022-09-27T09:15:56.368Z,0.90
2022-09-27T09:18:53.749Z,1.02
2022-09-27T09:21:42.107Z,0.90
2022-09-27T09:24:30.184Z,0.80
2022-09-27T09:27:05.871Z,0.68
2022-09-27T09:29:51.069Z,0.52
2022-09-27T09:35:03.208Z,0.52
2022-09-27T09:37:57.458Z,0.73
2022-09-27T09:40:47.085Z,0.50
2022-09-27T09:43:33.768Z,0.77
2022-09-27T09:46:09.431Z,0.50
2022-09-27T09:48:47.234Z,0.82
2022-09-27T09:51:22.040Z,0.73
2022-09-27T09:56:45.751Z,0.70
2022-09-27T09:59:18.950Z,0.52
2022-09-27T10:01:48.502Z,0.65
2022-09-27T10:04:25.186Z,0.50
2022-09-27T10:06:52.701Z,0.38
2022-09-27T10:09:24.479Z,0.43
2022-09-27T10:11:51.190Z,1.63
2022-09-27T10:14:20.989Z,0.40
2022-09-27T10:16:59.146Z,0.57
2022-09-27T10:19:30.399Z,0.57
2022-09-27T10:22:14.314Z,0.57
2022-09-27T10:25:03.291Z,0.43
2022-09-27T10:27:44.140Z,0.73
2022-09-27T10:30:23.868Z,0.60
2022-09-27T10:32:53.120Z,0.40
2022-09-27T10:35:23.769Z,0.60
2022-09-27T10:37:51.042Z,0.52
2022-09-27T10:40:33.704Z,0.70
2022-09-27T10:43:00.438Z,0.50
2022-09-27T10:45:28.845Z,0.63
2022-09-27T10:47:56.088Z,0.73
2022-09-27T10:50:49.605Z,0.60
2022-09-27T10:53:21.504Z,0.55
2022-09-27T10:55:51.635Z,0.38
2022-09-27T10:58:25.075Z,0.82
2022-09-27T11:01:03.345Z,0.90
2022-09-27T11:03:37.228Z,0.80
2022-09-27T11:06:30.139Z,0.57
2022-09-27T11:09:12.049Z,0.82
2022-09-27T11:11:38.686Z,0.82
2022-09-27T11:14:17.855Z,0.77
2022-09-27T11:16:51.061Z,0.85
2022-09-27T11:19:36.605Z,1.15
2022-09-27T11:22:09.872Z,0.88
2022-09-27T11:25:01.630Z,0.70
2022-09-27T11:27:58.034Z,0.68
2022-09-27T11:30:28.287Z,0.70
2022-09-27T11:33:02.321Z,0.70
2022-09-27T11:35:52.172Z,0.90
2022-09-27T11:38:52.622Z,0.60
2022-09-27T11:41:40.611Z,0.60
2022-09-27T11:44:29.147Z,0.70
2022-09-27T11:47:15.976Z,0.90
2022-09-27T11:50:12.544Z,0.85
2022-09-27T11:53:01.141Z,0.82
2022-09-27T11:56:01.172Z,0.95
2022-09-27T11:58:33.619Z,1.02
2022-09-27T12:01:19.558Z,1.02
2022-09-27T12:04:11.918Z,0.68
2022-09-27T12:06:54.359Z,0.60
2022-09-27T12:09:25.923Z,0.47
2022-09-27T12:12:11.008Z,0.60
2022-09-27T12:19:56.509Z,0.70
2022-09-27T12:22:58.187Z,0.60
2022-09-27T12:25:34.220Z,0.60
2022-09-27T12:30:33.020Z,0.60
2022-09-27T12:33:37.746Z,0.60
2022-09-27T12:36:10.696Z,0.90
2022-09-27T12:39:13.283Z,0.75
2022-09-27T12:41:51.883Z,0.70
2022-09-27T12:44:18.799Z,0.98
2022-09-27T12:47:04.503Z,0.98
2022-09-27T12:50:00.475Z,1.17
2022-09-27T12:52:33.553Z,0.95
2022-09-27T12:55:18.725Z,1.00
2022-09-27T13:00:25.146Z,0.90
2022-09-27T13:03:18.790Z,0.90
2022-09-27T13:06:00.125Z,0.73
2022-09-27T13:09:07.775Z,0.63
2022-09-27T13:11:46.710Z,0.80
2022-09-27T13:14:21.892Z,0.57
2022-09-27T13:16:49.287Z,0.73
2022-09-27T13:19:43.331Z,0.57
2022-09-27T13:22:14.723Z,0.77
2022-09-27T13:24:43.169Z,1.02
2022-09-27T13:27:22.079Z,1.23
2022-09-27T13:29:52.648Z,0.70
2022-09-27T13:32:25.005Z,0.63
2022-09-27T13:34:54.893Z,1.00
2022-09-27T13:37:37.710Z,0.95
2022-09-27T13:40:22.390Z,1.00
2022-09-27T13:42:55.520Z,1.05
2022-09-27T13:45:31.881Z,0.80
2022-09-27T13:48:00.527Z,0.73
2022-09-27T13:50:51.025Z,0.93
2022-09-27T13:53:39.611Z,0.98
2022-09-27T13:56:26.946Z,0.60
2022-09-27T13:59:01.417Z,0.75
2022-09-27T14:01:36.798Z,1.02
2022-09-27T14:04:16.345Z,1.20
2022-09-27T14:06:47.962Z,1.05
2022-09-27T14:09:34.632Z,1.40
2022-09-27T14:12:08.748Z,1.63
2022-09-27T14:14:36.239Z,0.98
2022-09-27T14:17:10.040Z,1.35
2022-09-27T14:19:41.378Z,1.00
2022-09-27T14:22:15.961Z,1.13
2022-09-27T14:24:42.547Z,0.80
2022-09-27T14:27:21.226Z,1.02
2022-09-27T14:29:57.980Z,1.05
2022-09-27T14:32:31.699Z,0.90
2022-09-27T14:35:06.615Z,1.52
2022-09-27T14:37:35.750Z,1.30
2022-09-27T14:40:08.866Z,0.68
2022-09-27T14:42:39.084Z,0.60
2022-09-27T14:45:32.469Z,1.08
2022-09-27T14:48:00.507Z,0.70
2022-09-27T14:50:29.748Z,0.90
2022-09-27T14:53:00.682Z,0.55
2022-09-27T14:55:30.924Z,0.70
2022-09-27T14:58:05.824Z,0.88
2022-09-27T15:00:36.237Z,0.95
2022-09-27T15:03:09.080Z,0.75
2022-09-27T15:05:36.088Z,0.85
2022-09-27T15:08:06.481Z,0.93
2022-09-27T15:10:35.604Z,0.60
2022-09-27T15:13:05.155Z,0.80
2022-09-27T15:15:35.548Z,0.80
2022-09-27T15:18:04.111Z,0.90
2022-09-27T15:20:35.670Z,0.50
2022-09-27T15:23:04.367Z,0.77
2022-09-27T15:25:43.444Z,0.50
2022-09-27T15:28:17.400Z,0.60
2022-09-27T15:31:02.403Z,0.93
2022-09-27T15:33:34.542Z,1.20
2022-09-27T15:36:05.033Z,0.65
2022-09-27T15:38:47.380Z,0.90
2022-09-27T15:41:18.894Z,0.70
2022-09-27T15:43:48.083Z,0.65
2022-09-27T15:46:36.602Z,0.80
2022-09-27T15:49:30.573Z,0.80
2022-09-27T15:51:59.469Z,0.40
2022-09-27T15:54:30.192Z,0.50
2022-09-27T15:57:02.129Z,0.70
2022-09-27T15:59:32.297Z,0.90
2022-09-27T16:02:07.021Z,2.40
2022-09-27T16:04:34.631Z,1.50
2022-09-27T16:07:04.028Z,2.00
2022-09-27T16:09:31.104Z,1.83
2022-09-27T16:11:57.759Z,2.25
2022-09-27T16:14:24.518Z,0.82
2022-09-27T16:17:08.068Z,1.38
2022-09-27T16:19:34.856Z,1.00
2022-09-27T16:22:03.520Z,0.57
2022-09-27T16:24:30.164Z,0.60
2022-09-27T16:26:56.822Z,0.60
2022-09-27T16:29:23.583Z,0.73
2022-09-27T16:31:50.737Z,0.80
2022-09-27T16:34:17.694Z,0.70
2022-09-27T16:36:44.645Z,1.00
2022-09-27T16:39:13.374Z,1.23
2022-09-27T16:41:43.787Z,1.00
2022-09-27T16:44:18.248Z,1.75
2022-09-27T16:46:48.037Z,1.80
2022-09-27T16:49:33.570Z,1.60
2022-09-27T16:52:00.496Z,1.50
2022-09-27T16:54:29.244Z,3.08
2022-09-27T16:56:59.568Z,3.67
2022-09-27T16:59:26.588Z,3.92
2022-09-27T17:01:58.322Z,1.92
2022-09-27T17:04:28.765Z,1.15
2022-09-27T17:06:56.136Z,1.00
2022-09-27T17:09:23.051Z,1.02
2022-09-27T17:11:50.321Z,1.10
2022-09-27T17:14:18.215Z,1.02
2022-09-27T17:16:46.625Z,1.02
2022-09-27T17:19:18.430Z,1.02
2022-09-27T17:21:46.258Z,1.08
2022-09-27T17:24:13.385Z,0.75
2022-09-27T17:26:40.211Z,0.98
2022-09-27T17:29:08.359Z,1.00
2022-09-27T17:31:37.297Z,1.10
2022-09-27T17:34:04.887Z,1.00
2022-09-27T17:36:34.501Z,1.20
2022-09-27T17:39:01.911Z,1.35
2022-09-27T17:41:29.601Z,1.25
2022-09-27T17:43:58.531Z,0.98
2022-09-27T17:46:27.830Z,1.08
2022-09-27T17:49:14.170Z,1.13
2022-09-27T17:51:41.842Z,1.20
2022-09-27T17:54:10.486Z,1.42
2022-09-27T17:56:38.819Z,1.40
2022-09-27T17:59:06.560Z,1.20
2022-09-27T18:01:34.227Z,1.48
2022-09-27T18:04:01.636Z,1.58
2022-09-27T18:06:29.203Z,1.65
2022-09-27T18:08:57.129Z,1.08
2022-09-27T18:11:29.257Z,2.20
2022-09-27T18:14:01.751Z,0.88
2022-09-27T18:16:32.011Z,1.42
2022-09-27T18:19:00.145Z,1.40
2022-09-27T18:21:27.639Z,1.10
2022-09-27T18:23:56.739Z,1.38
2022-09-27T18:26:24.949Z,1.27
2022-09-27T18:28:54.066Z,1.25
2022-09-27T18:31:23.713Z,1.48
2022-09-27T18:33:50.761Z,1.73
2022-09-27T18:36:21.513Z,1.85
2022-09-27T18:38:54.240Z,1.60
2022-09-27T18:41:22.415Z,1.50
2022-09-27T18:43:53.304Z,1.75
2022-09-27T18:46:36.893Z,1.70
2022-09-27T18:49:06.453Z,1.80
2022-09-27T18:51:36.116Z,1.75
2022-09-27T18:54:05.573Z,1.90
2022-09-27T18:56:38.950Z,2.60
2022-09-27T18:59:09.039Z,2.15
2022-09-27T19:01:43.254Z,2.85
2022-09-27T19:04:12.469Z,3.00
2022-09-27T19:06:39.893Z,3.30
2022-09-27T19:09:07.760Z,3.08
2022-09-27T19:11:34.938Z,3.28
2022-09-27T19:14:02.285Z,2.72
2022-09-27T19:16:30.263Z,2.55
2022-09-27T19:18:56.935Z,2.45
2022-09-27T19:21:28.993Z,2.60
2022-09-27T19:23:56.245Z,2.55
2022-09-27T19:26:25.623Z,2.67
2022-09-27T19:28:52.332Z,2.20
2022-09-27T19:31:24.157Z,1.90
2022-09-27T19:33:55.017Z,2.22
2022-09-27T19:36:24.316Z,2.10
2022-09-27T19:38:51.935Z,2.17
2022-09-27T19:41:19.397Z,2.90
2022-09-27T19:43:51.681Z,2.60
2022-09-27T19:46:20.313Z,1.60
2022-09-27T19:48:48.439Z,1.83
2022-09-27T19:51:18.243Z,2.17
2022-09-27T19:53:45.294Z,1.80
2022-09-27T19:56:13.107Z,1.80
2022-09-27T19:58:41.213Z,1.58
2022-09-27T20:01:13.926Z,1.67
2022-09-27T20:03:43.010Z,1.83
2022-09-27T20:06:15.555Z,1.42
2022-09-27T20:08:43.458Z,1.40
2022-09-27T20:11:15.454Z,1.70
2022-09-27T20:13:43.394Z,1.08
2022-09-27T20:16:12.890Z,1.67
2022-09-27T20:18:41.837Z,1.58
2022-09-27T20:21:08.781Z,1.67
2022-09-27T20:23:36.076Z,1.10
2022-09-27T20:26:13.628Z,1.52
2022-09-27T20:28:48.581Z,1.40
2022-09-27T20:31:17.767Z,1.55
2022-09-27T20:33:46.463Z,1.75
2022-09-27T20:36:15.889Z,1.73
2022-09-27T20:38:49.189Z,2.75
2022-09-27T20:41:18.387Z,3.00
2022-09-27T20:43:45.773Z,3.03
2022-09-27T20:46:15.292Z,3.20
2022-09-27T20:48:43.416Z,2.70
2022-09-27T20:51:16.617Z,3.65
2022-09-27T20:53:47.084Z,3.33
2022-09-27T20:56:27.764Z,3.03
2022-09-27T20:58:56.543Z,3.60
2022-09-27T21:01:24.586Z,3.47
2022-09-27T21:04:00.372Z,3.17
2022-09-27T21:06:27.751Z,3.28
2022-09-27T21:08:55.040Z,4.47
2022-09-27T21:11:22.558Z,4.35
2022-09-27T21:13:50.719Z,3.97
2022-09-27T21:16:20.155Z,4.07
2022-09-27T21:18:50.596Z,4.35
2022-09-27T21:21:17.423Z,4.22
2022-09-27T21:23:45.703Z,4.95
2022-09-27T21:26:17.677Z,5.00
2022-09-27T21:28:48.924Z,4.82
2022-09-27T21:31:23.065Z,5.22
2022-09-27T21:33:55.562Z,4.60
2022-09-27T21:36:23.699Z,5.07
2022-09-27T21:38:51.400Z,5.47
2022-09-27T21:41:18.765Z,4.60
2022-09-27T21:43:47.676Z,5.22
2022-09-27T21:46:17.403Z,5.20
2022-09-27T21:48:46.257Z,5.00
2022-09-27T21:51:22.125Z,4.38
2022-09-27T21:54:00.613Z,3.85
2022-09-27T21:56:29.831Z,3.60
2022-09-27T21:58:56.524Z,3.40
2022-09-27T22:01:29.645Z,3.40
2022-09-27T22:03:57.924Z,3.60
2022-09-27T22:06:30.125Z,3.40
2022-09-27T22:08:58.124Z,3.03
2022-09-27T22:11:28.000Z,2.72
2022-09-27T22:13:55.033Z,2.40
2022-09-27T22:16:22.553Z,2.53
2022-09-27T22:18:51.607Z,2.80
2022-09-27T22:21:21.544Z,3.00
2022-09-27T22:23:48.222Z,2.22
2022-09-27T22:26:22.865Z,2.28
2022-09-27T22:28:50.113Z,2.67
2022-09-27T22:31:20.818Z,2.15
2022-09-27T22:33:49.698Z,2.22
2022-09-27T22:36:17.098Z,2.33
2022-09-27T22:38:44.351Z,2.40
2022-09-27T22:41:12.149Z,2.60
2022-09-27T22:43:39.635Z,2.72
2022-09-27T22:46:06.542Z,2.58
2022-09-27T22:48:33.244Z,2.80
2022-09-27T22:51:00.594Z,3.17
2022-09-27T22:53:29.064Z,2.40
2022-09-27T22:56:04.003Z,3.22
2022-09-27T22:58:31.561Z,3.78
2022-09-27T23:00:58.207Z,3.63
2022-09-27T23:03:24.929Z,3.47
2022-09-27T23:05:51.658Z,3.92
2022-09-27T23:08:18.371Z,3.83
2022-09-27T23:10:45.032Z,3.72
2022-09-27T23:13:11.795Z,3.25
2022-09-27T23:15:38.419Z,5.05
2022-09-27T23:18:06.792Z,3.42
2022-09-27T23:20:34.470Z,3.13
2022-09-27T23:23:01.840Z,2.30
2022-09-27T23:25:28.757Z,1.60
2022-09-27T23:27:55.705Z,1.70
2022-09-27T23:30:24.513Z,1.35
2022-09-27T23:32:58.016Z,1.40
2022-09-27T23:35:26.580Z,1.60
2022-09-27T23:37:54.272Z,1.50
2022-09-27T23:40:20.993Z,1.58
2022-09-27T23:42:47.656Z,1.20
2022-09-27T23:45:15.848Z,1.52
2022-09-27T23:47:42.700Z,1.30
2022-09-27T23:50:09.929Z,1.60
2022-09-27T23:52:36.512Z,1.35
2022-09-27T23:55:03.675Z,1.20
2022-09-27T23:57:30.795Z,1.30
2022-09-27T23:59:57.570Z,1.30
